sensor_id;sensor_type;location;lat;lon;timestamp;P1;durP1;ratioP1;P2;durP2;ratioP2
10031;SDS011;5056;44.272;19.892;2022-09-30T00:01:27;7.50;;;4.80;;
10031;SDS011;5056;44.272;19.892;2022-09-30T00:06:45;5.93;;;3.85;;
10031;SDS011;5056;44.272;19.892;2022-09-30T00:09:13;4.80;;;3.70;;
10031;SDS011;5056;44.272;19.892;2022-09-30T00:11:40;4.88;;;4.40;;
10031;SDS011;5056;44.272;19.892;2022-09-30T00:14:12;4.40;;;4.00;;
10031;SDS011;5056;44.272;19.892;2022-09-30T00:16:42;6.22;;;4.28;;
10031;SDS011;5056;44.272;19.892;2022-09-30T00:19:09;5.30;;;4.28;;
10031;SDS011;5056;44.272;19.892;2022-09-30T00:21:37;6.47;;;4.68;;
10031;SDS011;5056;44.272;19.892;2022-09-30T00:24:05;6.70;;;4.45;;
10031;SDS011;5056;44.272;19.892;2022-09-30T00:26:33;6.03;;;4.57;;
10031;SDS011;5056;44.272;19.892;2022-09-30T00:29:00;6.97;;;4.57;;
10031;SDS011;5056;44.272;19.892;2022-09-30T00:31:28;5.75;;;4.03;;
10031;SDS011;5056;44.272;19.892;2022-09-30T00:33:57;4.45;;;4.00;;
10031;SDS011;5056;44.272;19.892;2022-09-30T00:36:33;5.47;;;3.87;;
10031;SDS011;5056;44.272;19.892;2022-09-30T00:39:01;5.50;;;4.45;;
10031;SDS011;5056;44.272;19.892;2022-09-30T00:41:31;4.72;;;3.78;;
10031;SDS011;5056;44.272;19.892;2022-09-30T00:43:58;4.28;;;3.88;;
10031;SDS011;5056;44.272;19.892;2022-09-30T00:46:40;4.50;;;4.10;;
10031;SDS011;5056;44.272;19.892;2022-09-30T00:49:10;4.00;;;3.53;;
10031;SDS011;5056;44.272;19.892;2022-09-30T00:51:41;4.00;;;3.50;;
10031;SDS011;5056;44.272;19.892;2022-09-30T00:54:11;4.40;;;3.42;;
10031;SDS011;5056;44.272;19.892;2022-09-30T00:56:41;3.80;;;3.40;;
10031;SDS011;5056;44.272;19.892;2022-09-30T00:59:12;3.75;;;3.33;;
10031;SDS011;5056;44.272;19.892;2022-09-30T01:01:50;3.97;;;3.30;;
10031;SDS011;5056;44.272;19.892;2022-09-30T01:04:19;3.63;;;3.33;;
10031;SDS011;5056;44.272;19.892;2022-09-30T01:06:49;2.58;;;2.38;;
10031;SDS011;5056;44.272;19.892;2022-09-30T01:09:16;6.03;;;2.80;;
10031;SDS011;5056;44.272;19.892;2022-09-30T01:11:44;6.68;;;3.38;;
10031;SDS011;5056;44.272;19.892;2022-09-30T01:14:11;3.95;;;3.40;;
10031;SDS011;5056;44.272;19.892;2022-09-30T01:16:44;4.93;;;3.40;;
10031;SDS011;5056;44.272;19.892;2022-09-30T01:22:25;3.88;;;3.58;;
10031;SDS011;5056;44.272;19.892;2022-09-30T01:28:02;6.75;;;3.75;;
10031;SDS011;5056;44.272;19.892;2022-09-30T01:31:04;4.00;;;3.10;;
10031;SDS011;5056;44.272;19.892;2022-09-30T01:33:41;3.15;;;2.90;;
10031;SDS011;5056;44.272;19.892;2022-09-30T01:36:21;7.93;;;5.63;;
10031;SDS011;5056;44.272;19.892;2022-09-30T01:38:54;4.57;;;4.13;;
10031;SDS011;5056;44.272;19.892;2022-09-30T01:41:30;7.30;;;6.60;;
10031;SDS011;5056;44.272;19.892;2022-09-30T01:44:07;5.83;;;5.20;;
10031;SDS011;5056;44.272;19.892;2022-09-30T01:47:04;4.55;;;3.97;;
10031;SDS011;5056;44.272;19.892;2022-09-30T01:49:37;6.55;;;4.57;;
10031;SDS011;5056;44.272;19.892;2022-09-30T01:52:07;6.10;;;5.50;;
10031;SDS011;5056;44.272;19.892;2022-09-30T01:54:36;7.18;;;5.78;;
10031;SDS011;5056;44.272;19.892;2022-09-30T01:57:13;4.50;;;4.10;;
10031;SDS011;5056;44.272;19.892;2022-09-30T01:59:45;4.10;;;3.70;;
10031;SDS011;5056;44.272;19.892;2022-09-30T02:02:18;5.53;;;3.75;;
10031;SDS011;5056;44.272;19.892;2022-09-30T02:04:48;5.45;;;3.55;;
10031;SDS011;5056;44.272;19.892;2022-09-30T02:07:20;4.80;;;4.18;;
10031;SDS011;5056;44.272;19.892;2022-09-30T02:09:52;5.88;;;3.80;;
10031;SDS011;5056;44.272;19.892;2022-09-30T02:12:24;7.03;;;4.30;;
10031;SDS011;5056;44.272;19.892;2022-09-30T02:14:54;4.75;;;4.28;;
10031;SDS011;5056;44.272;19.892;2022-09-30T02:17:28;4.47;;;4.00;;
10031;SDS011;5056;44.272;19.892;2022-09-30T02:20:00;4.00;;;3.60;;
10031;SDS011;5056;44.272;19.892;2022-09-30T02:22:29;6.05;;;3.83;;
10031;SDS011;5056;44.272;19.892;2022-09-30T02:25:06;4.32;;;3.92;;
10031;SDS011;5056;44.272;19.892;2022-09-30T02:27:36;4.10;;;3.80;;
10031;SDS011;5056;44.272;19.892;2022-09-30T02:30:07;7.65;;;3.80;;
10031;SDS011;5056;44.272;19.892;2022-09-30T02:32:38;4.15;;;3.20;;
10031;SDS011;5056;44.272;19.892;2022-09-30T02:35:09;4.25;;;3.30;;
10031;SDS011;5056;44.272;19.892;2022-09-30T02:37:40;4.35;;;3.53;;
10031;SDS011;5056;44.272;19.892;2022-09-30T02:42:46;3.35;;;3.05;;
10031;SDS011;5056;44.272;19.892;2022-09-30T02:45:15;8.00;;;3.88;;
10031;SDS011;5056;44.272;19.892;2022-09-30T02:47:57;3.83;;;3.30;;
10031;SDS011;5056;44.272;19.892;2022-09-30T02:50:33;4.95;;;4.43;;
10031;SDS011;5056;44.272;19.892;2022-09-30T02:53:11;4.25;;;3.80;;
10031;SDS011;5056;44.272;19.892;2022-09-30T02:55:46;6.55;;;3.72;;
10031;SDS011;5056;44.272;19.892;2022-09-30T02:58:25;4.18;;;3.80;;
10031;SDS011;5056;44.272;19.892;2022-09-30T03:00:54;5.40;;;3.80;;
10031;SDS011;5056;44.272;19.892;2022-09-30T03:03:26;5.05;;;4.03;;
10031;SDS011;5056;44.272;19.892;2022-09-30T03:05:54;4.45;;;3.58;;
10031;SDS011;5056;44.272;19.892;2022-09-30T03:08:23;8.13;;;4.43;;
10031;SDS011;5056;44.272;19.892;2022-09-30T03:10:52;5.25;;;4.35;;
10031;SDS011;5056;44.272;19.892;2022-09-30T03:13:23;4.30;;;3.93;;
10031;SDS011;5056;44.272;19.892;2022-09-30T03:16:07;6.28;;;3.90;;
10031;SDS011;5056;44.272;19.892;2022-09-30T03:18:56;8.82;;;4.18;;
10031;SDS011;5056;44.272;19.892;2022-09-30T03:21:42;6.13;;;5.55;;
10031;SDS011;5056;44.272;19.892;2022-09-30T03:24:24;4.75;;;4.32;;
10031;SDS011;5056;44.272;19.892;2022-09-30T03:27:22;5.13;;;4.43;;
10031;SDS011;5056;44.272;19.892;2022-09-30T03:32:42;5.78;;;4.00;;
10031;SDS011;5056;44.272;19.892;2022-09-30T03:35:20;5.80;;;4.30;;
10031;SDS011;5056;44.272;19.892;2022-09-30T03:37:55;34.67;;;31.88;;
10031;SDS011;5056;44.272;19.892;2022-09-30T03:40:27;17.40;;;15.85;;
10031;SDS011;5056;44.272;19.892;2022-09-30T03:42:59;27.45;;;25.35;;
10031;SDS011;5056;44.272;19.892;2022-09-30T03:45:31;11.90;;;6.20;;
10031;SDS011;5056;44.272;19.892;2022-09-30T03:48:06;9.02;;;5.32;;
10031;SDS011;5056;44.272;19.892;2022-09-30T03:50:38;6.20;;;5.10;;
10031;SDS011;5056;44.272;19.892;2022-09-30T03:53:07;9.90;;;5.53;;
10031;SDS011;5056;44.272;19.892;2022-09-30T03:55:42;6.53;;;5.93;;
10031;SDS011;5056;44.272;19.892;2022-09-30T03:58:14;6.72;;;6.03;;
10031;SDS011;5056;44.272;19.892;2022-09-30T04:00:53;8.93;;;5.50;;
10031;SDS011;5056;44.272;19.892;2022-09-30T04:03:24;6.50;;;5.28;;
10031;SDS011;5056;44.272;19.892;2022-09-30T04:05:56;6.25;;;5.65;;
10031;SDS011;5056;44.272;19.892;2022-09-30T04:08:25;5.90;;;5.40;;
10031;SDS011;5056;44.272;19.892;2022-09-30T04:10:56;8.25;;;5.60;;
10031;SDS011;5056;44.272;19.892;2022-09-30T04:13:25;7.57;;;5.40;;
10031;SDS011;5056;44.272;19.892;2022-09-30T04:15:55;9.73;;;7.00;;
10031;SDS011;5056;44.272;19.892;2022-09-30T04:18:22;8.60;;;6.30;;
10031;SDS011;5056;44.272;19.892;2022-09-30T04:20:57;7.55;;;6.38;;
10031;SDS011;5056;44.272;19.892;2022-09-30T04:23:24;9.15;;;5.38;;
10031;SDS011;5056;44.272;19.892;2022-09-30T04:25:52;5.47;;;3.85;;
10031;SDS011;5056;44.272;19.892;2022-09-30T04:28:24;4.40;;;2.95;;
10031;SDS011;5056;44.272;19.892;2022-09-30T04:30:54;3.67;;;3.08;;
10031;SDS011;5056;44.272;19.892;2022-09-30T04:33:21;3.33;;;2.22;;
10031;SDS011;5056;44.272;19.892;2022-09-30T04:35:48;4.47;;;2.83;;
10031;SDS011;5056;44.272;19.892;2022-09-30T04:38:20;2.60;;;1.50;;
10031;SDS011;5056;44.272;19.892;2022-09-30T04:40:48;3.60;;;2.03;;
10031;SDS011;5056;44.272;19.892;2022-09-30T04:43:18;4.22;;;2.47;;
10031;SDS011;5056;44.272;19.892;2022-09-30T04:45:46;4.28;;;2.30;;
10031;SDS011;5056;44.272;19.892;2022-09-30T04:48:14;4.50;;;2.35;;
10031;SDS011;5056;44.272;19.892;2022-09-30T04:50:41;3.25;;;1.95;;
10031;SDS011;5056;44.272;19.892;2022-09-30T04:53:10;3.53;;;1.67;;
10031;SDS011;5056;44.272;19.892;2022-09-30T04:55:45;3.90;;;2.28;;
10031;SDS011;5056;44.272;19.892;2022-09-30T04:58:20;2.72;;;1.75;;
10031;SDS011;5056;44.272;19.892;2022-09-30T05:00:47;3.63;;;1.88;;
10031;SDS011;5056;44.272;19.892;2022-09-30T05:03:17;2.40;;;1.90;;
10031;SDS011;5056;44.272;19.892;2022-09-30T05:05:44;1.67;;;1.42;;
10031;SDS011;5056;44.272;19.892;2022-09-30T05:08:13;2.65;;;1.83;;
10031;SDS011;5056;44.272;19.892;2022-09-30T05:10:41;3.00;;;2.33;;
10031;SDS011;5056;44.272;19.892;2022-09-30T05:13:11;6.10;;;4.20;;
10031;SDS011;5056;44.272;19.892;2022-09-30T05:15:38;5.78;;;4.72;;
10031;SDS011;5056;44.272;19.892;2022-09-30T05:18:05;8.38;;;4.95;;
10031;SDS011;5056;44.272;19.892;2022-09-30T05:20:33;5.65;;;4.93;;
10031;SDS011;5056;44.272;19.892;2022-09-30T05:22:59;6.45;;;5.03;;
10031;SDS011;5056;44.272;19.892;2022-09-30T05:28:16;15.20;;;7.55;;
10031;SDS011;5056;44.272;19.892;2022-09-30T05:30:43;25.00;;;8.95;;
10031;SDS011;5056;44.272;19.892;2022-09-30T05:33:11;20.13;;;8.77;;
10031;SDS011;5056;44.272;19.892;2022-09-30T05:35:39;13.75;;;8.63;;
10031;SDS011;5056;44.272;19.892;2022-09-30T05:38:12;23.98;;;8.65;;
10031;SDS011;5056;44.272;19.892;2022-09-30T05:40:40;12.75;;;7.70;;
10031;SDS011;5056;44.272;19.892;2022-09-30T05:43:08;15.65;;;7.88;;
10031;SDS011;5056;44.272;19.892;2022-09-30T05:45:39;13.38;;;8.75;;
10031;SDS011;5056;44.272;19.892;2022-09-30T05:48:06;19.33;;;9.32;;
10031;SDS011;5056;44.272;19.892;2022-09-30T05:50:34;14.07;;;7.68;;
10031;SDS011;5056;44.272;19.892;2022-09-30T05:53:02;9.25;;;6.50;;
10031;SDS011;5056;44.272;19.892;2022-09-30T05:55:30;14.88;;;6.63;;
10031;SDS011;5056;44.272;19.892;2022-09-30T05:57:58;13.15;;;6.30;;
10031;SDS011;5056;44.272;19.892;2022-09-30T06:00:25;13.30;;;5.68;;
10031;SDS011;5056;44.272;19.892;2022-09-30T06:05:57;14.15;;;8.25;;
10031;SDS011;5056;44.272;19.892;2022-09-30T06:08:24;18.60;;;9.00;;
10031;SDS011;5056;44.272;19.892;2022-09-30T06:10:52;17.50;;;10.85;;
10031;SDS011;5056;44.272;19.892;2022-09-30T06:13:20;15.85;;;11.93;;
10031;SDS011;5056;44.272;19.892;2022-09-30T06:15:53;13.93;;;10.35;;
10031;SDS011;5056;44.272;19.892;2022-09-30T06:18:21;16.30;;;7.63;;
10031;SDS011;5056;44.272;19.892;2022-09-30T06:20:51;17.23;;;6.85;;
10031;SDS011;5056;44.272;19.892;2022-09-30T06:23:18;14.63;;;5.70;;
10031;SDS011;5056;44.272;19.892;2022-09-30T06:25:49;15.05;;;6.25;;
10031;SDS011;5056;44.272;19.892;2022-09-30T06:28:18;8.23;;;5.43;;
10031;SDS011;5056;44.272;19.892;2022-09-30T06:30:46;7.82;;;5.43;;
10031;SDS011;5056;44.272;19.892;2022-09-30T06:33:13;15.07;;;6.10;;
10031;SDS011;5056;44.272;19.892;2022-09-30T06:35:41;15.88;;;6.35;;
10031;SDS011;5056;44.272;19.892;2022-09-30T06:38:13;9.68;;;5.47;;
10031;SDS011;5056;44.272;19.892;2022-09-30T06:40:42;12.95;;;6.38;;
10031;SDS011;5056;44.272;19.892;2022-09-30T06:43:10;13.90;;;7.90;;
10031;SDS011;5056;44.272;19.892;2022-09-30T06:45:37;10.02;;;7.03;;
10031;SDS011;5056;44.272;19.892;2022-09-30T06:48:04;12.02;;;6.22;;
10031;SDS011;5056;44.272;19.892;2022-09-30T06:50:33;10.45;;;6.20;;
10031;SDS011;5056;44.272;19.892;2022-09-30T06:53:04;9.70;;;6.05;;
10031;SDS011;5056;44.272;19.892;2022-09-30T06:55:33;9.80;;;5.50;;
10031;SDS011;5056;44.272;19.892;2022-09-30T06:58:03;8.98;;;5.57;;
10031;SDS011;5056;44.272;19.892;2022-09-30T07:00:33;13.70;;;6.78;;
10031;SDS011;5056;44.272;19.892;2022-09-30T07:03:00;11.88;;;5.78;;
10031;SDS011;5056;44.272;19.892;2022-09-30T07:05:30;12.57;;;6.50;;
10031;SDS011;5056;44.272;19.892;2022-09-30T07:07:58;14.73;;;7.30;;
10031;SDS011;5056;44.272;19.892;2022-09-30T07:10:25;11.27;;;6.50;;
10031;SDS011;5056;44.272;19.892;2022-09-30T07:12:55;13.10;;;6.30;;
10031;SDS011;5056;44.272;19.892;2022-09-30T07:15:22;9.18;;;5.57;;
10031;SDS011;5056;44.272;19.892;2022-09-30T07:17:52;14.55;;;5.72;;
10031;SDS011;5056;44.272;19.892;2022-09-30T07:20:20;8.85;;;4.72;;
10031;SDS011;5056;44.272;19.892;2022-09-30T07:26:10;4.75;;;3.65;;
10031;SDS011;5056;44.272;19.892;2022-09-30T07:28:39;5.90;;;3.33;;
10031;SDS011;5056;44.272;19.892;2022-09-30T07:31:09;4.30;;;3.28;;
10031;SDS011;5056;44.272;19.892;2022-09-30T07:33:40;5.30;;;3.70;;
10031;SDS011;5056;44.272;19.892;2022-09-30T07:36:07;3.20;;;3.00;;
10031;SDS011;5056;44.272;19.892;2022-09-30T07:38:37;4.72;;;2.70;;
10031;SDS011;5056;44.272;19.892;2022-09-30T07:41:11;3.80;;;2.50;;
10031;SDS011;5056;44.272;19.892;2022-09-30T07:43:41;3.13;;;2.53;;
10031;SDS011;5056;44.272;19.892;2022-09-30T07:46:13;2.85;;;2.65;;
10031;SDS011;5056;44.272;19.892;2022-09-30T07:48:43;5.90;;;3.40;;
10031;SDS011;5056;44.272;19.892;2022-09-30T07:51:14;5.70;;;2.78;;
10031;SDS011;5056;44.272;19.892;2022-09-30T07:53:44;2.90;;;2.70;;
10031;SDS011;5056;44.272;19.892;2022-09-30T07:56:13;4.35;;;2.42;;
10031;SDS011;5056;44.272;19.892;2022-09-30T07:58:44;2.60;;;1.90;;
10031;SDS011;5056;44.272;19.892;2022-09-30T08:01:14;3.20;;;2.30;;
10031;SDS011;5056;44.272;19.892;2022-09-30T08:03:42;3.60;;;3.03;;
10031;SDS011;5056;44.272;19.892;2022-09-30T08:06:10;2.63;;;2.47;;
10031;SDS011;5056;44.272;19.892;2022-09-30T08:08:39;3.00;;;2.58;;
10031;SDS011;5056;44.272;19.892;2022-09-30T08:11:16;5.68;;;2.80;;
10031;SDS011;5056;44.272;19.892;2022-09-30T08:13:48;3.67;;;2.42;;
10031;SDS011;5056;44.272;19.892;2022-09-30T08:16:16;3.38;;;3.08;;
10031;SDS011;5056;44.272;19.892;2022-09-30T08:18:47;7.20;;;2.58;;
10031;SDS011;5056;44.272;19.892;2022-09-30T08:21:15;4.82;;;3.28;;
10031;SDS011;5056;44.272;19.892;2022-09-30T08:23:43;3.83;;;3.33;;
10031;SDS011;5056;44.272;19.892;2022-09-30T08:26:10;3.30;;;1.85;;
10031;SDS011;5056;44.272;19.892;2022-09-30T08:28:40;2.42;;;1.40;;
10031;SDS011;5056;44.272;19.892;2022-09-30T08:31:14;2.83;;;2.60;;
10031;SDS011;5056;44.272;19.892;2022-09-30T08:33:42;3.72;;;3.20;;
10031;SDS011;5056;44.272;19.892;2022-09-30T08:36:15;3.15;;;2.95;;
10031;SDS011;5056;44.272;19.892;2022-09-30T08:38:43;2.47;;;2.28;;
10031;SDS011;5056;44.272;19.892;2022-09-30T08:41:13;4.95;;;4.50;;
10031;SDS011;5056;44.272;19.892;2022-09-30T08:43:56;3.25;;;2.10;;
10031;SDS011;5056;44.272;19.892;2022-09-30T08:46:40;3.42;;;2.13;;
10031;SDS011;5056;44.272;19.892;2022-09-30T08:49:18;4.88;;;2.38;;
10031;SDS011;5056;44.272;19.892;2022-09-30T08:51:55;10.05;;;9.02;;
10031;SDS011;5056;44.272;19.892;2022-09-30T08:54:33;7.05;;;6.45;;
10031;SDS011;5056;44.272;19.892;2022-09-30T08:57:16;4.93;;;4.20;;
10031;SDS011;5056;44.272;19.892;2022-09-30T08:59:44;3.88;;;3.58;;
10031;SDS011;5056;44.272;19.892;2022-09-30T09:02:17;3.70;;;3.47;;
10031;SDS011;5056;44.272;19.892;2022-09-30T09:04:52;2.90;;;2.70;;
10031;SDS011;5056;44.272;19.892;2022-09-30T09:07:29;2.30;;;2.10;;
10031;SDS011;5056;44.272;19.892;2022-09-30T09:10:06;2.63;;;2.42;;
10031;SDS011;5056;44.272;19.892;2022-09-30T09:12:44;2.42;;;2.22;;
10031;SDS011;5056;44.272;19.892;2022-09-30T09:15:24;5.57;;;3.88;;
10031;SDS011;5056;44.272;19.892;2022-09-30T09:20:59;3.03;;;2.25;;
10031;SDS011;5056;44.272;19.892;2022-09-30T09:23:30;4.03;;;3.13;;
10031;SDS011;5056;44.272;19.892;2022-09-30T09:25:59;8.30;;;6.60;;
10031;SDS011;5056;44.272;19.892;2022-09-30T09:28:30;8.73;;;6.80;;
10031;SDS011;5056;44.272;19.892;2022-09-30T09:31:01;9.35;;;6.50;;
10031;SDS011;5056;44.272;19.892;2022-09-30T09:33:33;6.07;;;3.60;;
10031;SDS011;5056;44.272;19.892;2022-09-30T09:36:04;4.97;;;4.32;;
10031;SDS011;5056;44.272;19.892;2022-09-30T09:38:49;4.85;;;4.22;;
10031;SDS011;5056;44.272;19.892;2022-09-30T09:41:27;4.35;;;3.95;;
10031;SDS011;5056;44.272;19.892;2022-09-30T09:44:05;3.35;;;3.03;;
10031;SDS011;5056;44.272;19.892;2022-09-30T09:46:39;3.47;;;3.17;;
10031;SDS011;5056;44.272;19.892;2022-09-30T09:55:15;3.67;;;2.75;;
10031;SDS011;5056;44.272;19.892;2022-09-30T09:57:44;3.03;;;2.65;;
10031;SDS011;5056;44.272;19.892;2022-09-30T10:00:21;3.67;;;3.13;;
10031;SDS011;5056;44.272;19.892;2022-09-30T10:03:10;3.33;;;3.03;;
10031;SDS011;5056;44.272;19.892;2022-09-30T10:05:44;4.95;;;3.03;;
10031;SDS011;5056;44.272;19.892;2022-09-30T10:08:14;5.53;;;3.50;;
10031;SDS011;5056;44.272;19.892;2022-09-30T10:10:46;3.40;;;2.70;;
10031;SDS011;5056;44.272;19.892;2022-09-30T10:13:16;3.42;;;2.45;;
10031;SDS011;5056;44.272;19.892;2022-09-30T10:15:46;2.17;;;2.08;;
10031;SDS011;5056;44.272;19.892;2022-09-30T10:18:19;2.58;;;2.38;;
10031;SDS011;5056;44.272;19.892;2022-09-30T10:20:51;2.90;;;2.20;;
10031;SDS011;5056;44.272;19.892;2022-09-30T10:23:21;2.10;;;1.95;;
10031;SDS011;5056;44.272;19.892;2022-09-30T10:25:54;2.35;;;2.22;;
10031;SDS011;5056;44.272;19.892;2022-09-30T10:28:23;2.80;;;2.60;;
10031;SDS011;5056;44.272;19.892;2022-09-30T10:30:53;2.80;;;2.05;;
10031;SDS011;5056;44.272;19.892;2022-09-30T10:33:23;2.50;;;2.30;;
10031;SDS011;5056;44.272;19.892;2022-09-30T10:41:29;3.85;;;2.20;;
10031;SDS011;5056;44.272;19.892;2022-09-30T10:43:59;2.88;;;2.13;;
10031;SDS011;5056;44.272;19.892;2022-09-30T10:46:28;2.20;;;1.98;;
10031;SDS011;5056;44.272;19.892;2022-09-30T10:48:57;3.28;;;2.10;;
10031;SDS011;5056;44.272;19.892;2022-09-30T10:51:41;3.03;;;2.40;;
10031;SDS011;5056;44.272;19.892;2022-09-30T10:54:31;3.05;;;2.10;;
10031;SDS011;5056;44.272;19.892;2022-09-30T10:57:00;2.50;;;2.25;;
10031;SDS011;5056;44.272;19.892;2022-09-30T10:59:30;3.20;;;2.30;;
10031;SDS011;5056;44.272;19.892;2022-09-30T11:02:02;2.45;;;2.30;;
10031;SDS011;5056;44.272;19.892;2022-09-30T11:04:41;3.10;;;2.80;;
10031;SDS011;5056;44.272;19.892;2022-09-30T11:07:16;2.92;;;2.63;;
10031;SDS011;5056;44.272;19.892;2022-09-30T11:09:51;2.75;;;2.20;;
10031;SDS011;5056;44.272;19.892;2022-09-30T11:12:23;5.22;;;2.80;;
10031;SDS011;5056;44.272;19.892;2022-09-30T11:14:56;8.15;;;2.70;;
10031;SDS011;5056;44.272;19.892;2022-09-30T11:17:31;5.07;;;2.58;;
10031;SDS011;5056;44.272;19.892;2022-09-30T11:20:05;4.95;;;2.65;;
10031;SDS011;5056;44.272;19.892;2022-09-30T11:22:42;2.70;;;2.20;;
10031;SDS011;5056;44.272;19.892;2022-09-30T11:25:13;2.50;;;2.30;;
10031;SDS011;5056;44.272;19.892;2022-09-30T11:27:42;2.85;;;2.17;;
10031;SDS011;5056;44.272;19.892;2022-09-30T11:30:17;2.25;;;2.05;;
10031;SDS011;5056;44.272;19.892;2022-09-30T11:32:52;3.72;;;3.03;;
10031;SDS011;5056;44.272;19.892;2022-09-30T11:35:31;2.83;;;2.63;;
10031;SDS011;5056;44.272;19.892;2022-09-30T11:38:11;2.28;;;1.95;;
10031;SDS011;5056;44.272;19.892;2022-09-30T11:40:46;4.07;;;2.40;;
10031;SDS011;5056;44.272;19.892;2022-09-30T11:43:21;1.95;;;1.80;;
10031;SDS011;5056;44.272;19.892;2022-09-30T11:49:01;2.40;;;2.20;;
10031;SDS011;5056;44.272;19.892;2022-09-30T11:51:37;2.47;;;2.28;;
10031;SDS011;5056;44.272;19.892;2022-09-30T11:54:15;2.10;;;2.00;;
10031;SDS011;5056;44.272;19.892;2022-09-30T11:56:52;3.95;;;2.85;;
10031;SDS011;5056;44.272;19.892;2022-09-30T11:59:27;2.72;;;2.40;;
10031;SDS011;5056;44.272;19.892;2022-09-30T12:01:56;3.22;;;1.80;;
10031;SDS011;5056;44.272;19.892;2022-09-30T12:04:26;2.70;;;2.50;;
10031;SDS011;5056;44.272;19.892;2022-09-30T12:06:57;2.70;;;2.45;;
10031;SDS011;5056;44.272;19.892;2022-09-30T12:09:29;4.47;;;2.83;;
10031;SDS011;5056;44.272;19.892;2022-09-30T12:12:00;4.47;;;2.42;;
10031;SDS011;5056;44.272;19.892;2022-09-30T12:14:32;5.35;;;2.63;;
10031;SDS011;5056;44.272;19.892;2022-09-30T12:17:04;2.88;;;2.30;;
10031;SDS011;5056;44.272;19.892;2022-09-30T12:19:34;1.88;;;1.77;;
10031;SDS011;5056;44.272;19.892;2022-09-30T12:22:04;1.70;;;1.60;;
10031;SDS011;5056;44.272;19.892;2022-09-30T12:24:38;2.95;;;2.13;;
10031;SDS011;5056;44.272;19.892;2022-09-30T12:29:52;3.05;;;2.10;;
10031;SDS011;5056;44.272;19.892;2022-09-30T12:32:57;2.33;;;2.22;;
10031;SDS011;5056;44.272;19.892;2022-09-30T12:35:57;4.28;;;2.90;;
10031;SDS011;5056;44.272;19.892;2022-09-30T12:38:50;4.45;;;3.22;;
10031;SDS011;5056;44.272;19.892;2022-09-30T12:41:33;10.90;;;4.88;;
10031;SDS011;5056;44.272;19.892;2022-09-30T12:44:37;9.30;;;4.40;;
10031;SDS011;5056;44.272;19.892;2022-09-30T12:47:22;15.13;;;4.65;;
10031;SDS011;5056;44.272;19.892;2022-09-30T12:49:53;9.23;;;4.05;;
10031;SDS011;5056;44.272;19.892;2022-09-30T12:52:21;3.65;;;2.20;;
10031;SDS011;5056;44.272;19.892;2022-09-30T12:54:49;6.95;;;2.70;;
10031;SDS011;5056;44.272;19.892;2022-09-30T13:00:14;3.30;;;2.92;;
10031;SDS011;5056;44.272;19.892;2022-09-30T13:02:45;3.35;;;2.40;;
10031;SDS011;5056;44.272;19.892;2022-09-30T13:11:20;3.15;;;2.85;;
10031;SDS011;5056;44.272;19.892;2022-09-30T13:17:00;4.38;;;3.10;;
10031;SDS011;5056;44.272;19.892;2022-09-30T13:19:47;2.72;;;2.47;;
10031;SDS011;5056;44.272;19.892;2022-09-30T13:25:38;6.28;;;3.03;;
10031;SDS011;5056;44.272;19.892;2022-09-30T13:28:29;5.00;;;3.60;;
10031;SDS011;5056;44.272;19.892;2022-09-30T13:31:15;3.50;;;3.20;;
10031;SDS011;5056;44.272;19.892;2022-09-30T13:33:44;5.25;;;2.92;;
10031;SDS011;5056;44.272;19.892;2022-09-30T13:36:17;3.30;;;2.70;;
10031;SDS011;5056;44.272;19.892;2022-09-30T13:39:04;3.85;;;2.60;;
10031;SDS011;5056;44.272;19.892;2022-09-30T13:41:33;3.28;;;2.97;;
10031;SDS011;5056;44.272;19.892;2022-09-30T13:44:04;7.68;;;3.40;;
10031;SDS011;5056;44.272;19.892;2022-09-30T13:46:38;4.25;;;3.13;;
10031;SDS011;5056;44.272;19.892;2022-09-30T13:49:13;3.50;;;3.03;;
10031;SDS011;5056;44.272;19.892;2022-09-30T13:51:43;3.17;;;2.90;;
10031;SDS011;5056;44.272;19.892;2022-09-30T13:54:11;3.00;;;2.80;;
10031;SDS011;5056;44.272;19.892;2022-09-30T13:56:46;3.13;;;2.83;;
10031;SDS011;5056;44.272;19.892;2022-09-30T13:59:19;3.13;;;2.50;;
10031;SDS011;5056;44.272;19.892;2022-09-30T14:05:27;2.60;;;2.40;;
10031;SDS011;5056;44.272;19.892;2022-09-30T14:11:19;3.58;;;3.00;;
10031;SDS011;5056;44.272;19.892;2022-09-30T14:14:13;3.03;;;2.72;;
10031;SDS011;5056;44.272;19.892;2022-09-30T14:16:57;2.83;;;2.55;;
10031;SDS011;5056;44.272;19.892;2022-09-30T14:19:44;3.22;;;2.92;;
10031;SDS011;5056;44.272;19.892;2022-09-30T14:22:19;3.58;;;3.28;;
10031;SDS011;5056;44.272;19.892;2022-09-30T14:24:52;3.53;;;3.22;;
10031;SDS011;5056;44.272;19.892;2022-09-30T14:27:29;3.70;;;3.03;;
10031;SDS011;5056;44.272;19.892;2022-09-30T14:30:04;3.80;;;3.15;;
10031;SDS011;5056;44.272;19.892;2022-09-30T14:32:39;3.22;;;2.95;;
10031;SDS011;5056;44.272;19.892;2022-09-30T14:35:13;6.10;;;4.00;;
10031;SDS011;5056;44.272;19.892;2022-09-30T14:37:45;4.10;;;3.75;;
10031;SDS011;5056;44.272;19.892;2022-09-30T14:40:18;5.80;;;4.70;;
10031;SDS011;5056;44.272;19.892;2022-09-30T14:42:50;4.32;;;3.92;;
10031;SDS011;5056;44.272;19.892;2022-09-30T14:45:22;4.88;;;4.05;;
10031;SDS011;5056;44.272;19.892;2022-09-30T14:47:52;8.77;;;5.15;;
10031;SDS011;5056;44.272;19.892;2022-09-30T14:50:24;5.68;;;4.25;;
10031;SDS011;5056;44.272;19.892;2022-09-30T14:52:54;5.05;;;4.55;;
10031;SDS011;5056;44.272;19.892;2022-09-30T14:55:24;4.70;;;4.25;;
10031;SDS011;5056;44.272;19.892;2022-09-30T14:57:56;5.72;;;4.28;;
10031;SDS011;5056;44.272;19.892;2022-09-30T15:00:43;4.43;;;4.03;;
10031;SDS011;5056;44.272;19.892;2022-09-30T15:03:13;3.97;;;3.67;;
10031;SDS011;5056;44.272;19.892;2022-09-30T15:05:40;4.30;;;3.92;;
10031;SDS011;5056;44.272;19.892;2022-09-30T15:08:10;4.32;;;3.92;;
10031;SDS011;5056;44.272;19.892;2022-09-30T15:10:38;4.43;;;4.03;;
10031;SDS011;5056;44.272;19.892;2022-09-30T15:13:12;4.55;;;4.07;;
10031;SDS011;5056;44.272;19.892;2022-09-30T15:15:40;6.68;;;4.03;;
10031;SDS011;5056;44.272;19.892;2022-09-30T15:23:48;9.32;;;6.32;;
10031;SDS011;5056;44.272;19.892;2022-09-30T15:26:16;6.72;;;6.13;;
10031;SDS011;5056;44.272;19.892;2022-09-30T15:28:43;9.68;;;6.57;;
10031;SDS011;5056;44.272;19.892;2022-09-30T15:31:19;11.05;;;8.15;;
10031;SDS011;5056;44.272;19.892;2022-09-30T15:33:59;13.07;;;7.88;;
10031;SDS011;5056;44.272;19.892;2022-09-30T15:36:27;9.70;;;7.85;;
10031;SDS011;5056;44.272;19.892;2022-09-30T15:38:56;9.60;;;7.95;;
10031;SDS011;5056;44.272;19.892;2022-09-30T15:41:22;9.35;;;7.75;;
10031;SDS011;5056;44.272;19.892;2022-09-30T15:43:51;11.50;;;8.48;;
10031;SDS011;5056;44.272;19.892;2022-09-30T15:46:21;11.68;;;7.63;;
10031;SDS011;5056;44.272;19.892;2022-09-30T15:48:56;9.15;;;6.82;;
10031;SDS011;5056;44.272;19.892;2022-09-30T15:51:28;11.27;;;6.70;;
10031;SDS011;5056;44.272;19.892;2022-09-30T15:54:23;8.02;;;6.35;;
10031;SDS011;5056;44.272;19.892;2022-09-30T15:56:57;9.65;;;6.28;;
10031;SDS011;5056;44.272;19.892;2022-09-30T16:02:27;8.80;;;6.50;;
10031;SDS011;5056;44.272;19.892;2022-09-30T16:05:04;8.02;;;6.40;;
10031;SDS011;5056;44.272;19.892;2022-09-30T16:07:32;7.05;;;6.35;;
10031;SDS011;5056;44.272;19.892;2022-09-30T16:10:00;8.50;;;6.38;;
10031;SDS011;5056;44.272;19.892;2022-09-30T16:12:28;9.73;;;6.80;;
10031;SDS011;5056;44.272;19.892;2022-09-30T16:14:58;10.55;;;8.52;;
10031;SDS011;5056;44.272;19.892;2022-09-30T16:17:35;9.45;;;8.15;;
10031;SDS011;5056;44.272;19.892;2022-09-30T16:20:04;8.75;;;8.00;;
10031;SDS011;5056;44.272;19.892;2022-09-30T16:22:33;9.25;;;8.02;;
10031;SDS011;5056;44.272;19.892;2022-09-30T16:25:19;10.27;;;7.43;;
10031;SDS011;5056;44.272;19.892;2022-09-30T16:27:53;10.57;;;7.00;;
10031;SDS011;5056;44.272;19.892;2022-09-30T16:30:22;7.47;;;6.60;;
10031;SDS011;5056;44.272;19.892;2022-09-30T16:32:50;7.47;;;6.57;;